Архив погоды в Дальнереченске

Метеограмма Дальнереченск
Четверг, 26 Апреля
Время местн. Темп Ветер Видим Явления Облачность нижн/средн/верх Атм. давл. Влжн Точка росы ВНГО R Сост. почвы Tg s
Напр Скр Прв ур.ст ур.м изм
19:00 +13.4° З,С-З 5 13 10 км - облачно 743 752 +2.5 36% -1.4° более 2.5 км 0 - - -
16:00 +22.9° С-З 5 10 20 км - облачно 740 749 -0.8 29% +3.9° более 2.5 км - - - -
13:00 +22.8° Ю-З 6 11 20 км - ясно 741 750 -1.4 20% -1.6° более 2.5 км - - - -
10:00 +16.7° Ю,Ю-З 6 10 10 км - ясно 742 751 -1 23% -4.3° более 2.5 км - - - -
07:00 +11.1° Ю 3 - 10 км - ясно 743 752 -1 28% -6.6° более 2.5 км 0 Влажная (без луж) - -
04:00 +10.5° Ю,Ю-З 4 - 10 км - ясно 744 753 -1 34% -4.6° более 2.5 км - - - -
01:00 +12.9° Ю-З 2 - 10 км - ясно 745 754 -1.2 25% -6.6° более 2.5 км - - - -
Среда, 25 Апреля
Время местн. Темп Ветер Видим Явления Облачность нижн/средн/верх Атм. давл. Влжн Точка росы ВНГО R Сост. почвы Tg s
Напр Скр Прв ур.ст ур.м изм
22:00 +14.2° З,Ю-З 2 - 10 км - ясно 746 755 -0.1 26% -5.2° более 2.5 км - - - -
19:00 +20.7° Ю-З 2 - 20 км - ясно 747 755 -1.5 16% -6.4° более 2.5 км 0 - - -
16:00 +22.9° З 4 - 20 км - незначительная облачность 748 757 -1.8 12% -8.5° 1 км - - - -
13:00 +21.5° З,Ю-З 2 - 20 км - ясно 750 759 -1.5 17% -4.3° более 2.5 км - - - -
10:00 +13.8° В 1 - 20 км - ясно 751 760 -0.1 37% -0.7° более 2.5 км - - - -
07:00 +2.4° Ю,Ю-В 1 - 20 км - ясно 751 761 +0.3 66% -3.3° более 2.5 км 0 Влажная (без луж) - -
04:00 +4° штиль 0 - 10 км - ясно 751 760 -0.3 62% -2.6° более 2.5 км - - - -
01:00 +10° штиль 0 - 10 км - ясно 751 761 -0.2 37% -3.9° более 2.5 км - - - -
Вторник, 24 Апреля
Время местн. Темп Ветер Видим Явления Облачность нижн/средн/верх Атм. давл. Влжн Точка росы ВНГО R Сост. почвы Tg s
Напр Скр Прв ур.ст ур.м изм
22:00 +12.5° штиль 0 - 10 км - переменная облачность 752 761 +0.3 32% -3.9° более 2.5 км - - - -
19:00 +18.2° штиль 0 - 20 км - облачно с прояснениями 751 760 -0.8 20% -4.8° более 2.5 км 0 - - -
16:00 +20° Ю,Ю-В 2 - 20 км - облачно 752 761 -2.2 15% -7.2° более 2.5 км - - - -
13:00 +16.5° С 1 - 20 км - облачно 754 763 -1.7 20% -6.8° более 2.5 км - - - -
10:00 +11.7° Ю-В 1 - 20 км - облачно с прояснениями 756 765 -0.2 33% -3.9° более 2.5 км - - - -
07:00 +5.3° штиль 0 - 20 км - облачно 756 766 -0.2 45% -5.7° более 2.5 км 0 Влажная (без луж) +1° -
04:00 +6.4° З 2 - 10 км - ясно 756 766 -0.5 48% -3.8° более 2.5 км - - - -
01:00 +8.7° З 1 - 10 км - ясно 757 766 -0.2 41% -3.9° более 2.5 км - - - -
Понедельник, 23 Апреля
Время местн. Темп Ветер Видим Явления Облачность нижн/средн/верх Атм. давл. Влжн Точка росы ВНГО R Сост. почвы Tg s
Напр Скр Прв ур.ст ур.м изм
22:00 +10.6° З 1 - 10 км - ясно 757 766 -0.1 32% -5.3° более 2.5 км - - - -
19:00 +15.5° З 1 - более 50 км - облачно 757 766 -1.1 22% -6.3° более 2.5 км 0 - - -
16:00 +16.5° З 2 - более 50 км - облачно 758 767 -2.2 22% -5.4° более 2.5 км - - - -